This is the latest recevied weather packets stored in our database for station/object WC4PEM-6. If no packets are shown the sender has not sent any weather packets the latest 10 day(s).
| Time | Temp. | Humidity | Pressure | Rain* | Wind** | Luminosity | Snow |
|---|---|---|---|---|---|---|---|
| 1777078833 | 25° C | 65% | 1011.3 hPa | 0 mm | - | - | - |
| 1777078709 | 25° C | 64% | 1011.3 hPa | 0 mm | - | - | - |
| 1777078533 | 25° C | 64% | 1011.3 hPa | 0 mm | - | - | - |
| 1777078233 | 25.56° C | 63% | 1011.3 hPa | 0 mm | - | - | - |
| 1777077933 | 25.56° C | 62% | 1011.2 hPa | 0 mm | - | - | - |
| 1777077823 | 26.11° C | 60% | 1011.2 hPa | 0 mm | - | - | - |
| 1777077633 | 26.11° C | 60% | 1011.2 hPa | 0 mm | - | - | - |
| 1777077546 | 26.11° C | 56% | 1011.1 hPa | 0 mm | - | - | - |
| 1777077333 | 26.11° C | 56% | 1011.1 hPa | 0 mm | - | - | - |
| 1777077291 | 26.67° C | 53% | 1010.9 hPa | 0 mm | - | - | - |
| 1777077033 | 26.67° C | 53% | 1010.9 hPa | 0 mm | - | - | - |
| 1777076841 | 26.67° C | 53% | 1010.9 hPa | 0 mm | - | - | - |
| 1777076733 | 26.67° C | 53% | 1010.9 hPa | 0 mm | - | - | - |
| 1777076433 | 26.67° C | 52% | 1010.9 hPa | 0 mm | - | - | - |
| 1777076345 | 26.67° C | 52% | 1010.8 hPa | 0 mm | - | - | - |
| 1777076133 | 26.67° C | 52% | 1010.8 hPa | 0 mm | - | - | - |
| 1777076050 | 26.67° C | 52% | 1010.8 hPa | 0 mm | - | - | - |
| 1777075833 | 26.67° C | 52% | 1010.8 hPa | 0 mm | - | - | - |
| 1777075533 | 26.67° C | 52% | 1010.8 hPa | 0 mm | - | - | - |
| 1777075450 | 26.67° C | 51% | 1010.8 hPa | 0 mm | - | - | - |
| 1777075233 | 26.67° C | 51% | 1010.8 hPa | 0 mm | - | - | - |
| 1777075094 | 26.67° C | 50% | 1010.8 hPa | 0 mm | - | - | - |
| 1777074933 | 26.67° C | 50% | 1010.8 hPa | 0 mm | - | - | - |
| 1777074700 | 27.78° C | 46% | 1010.4 hPa | 0 mm | - | - | - |
| 1777074633 | 26.67° C | 50% | 1010.8 hPa | 0 mm | - | - | - |
* Rain latest hour (hover to see other rain measurements)
** Current wind speed in m/s (hover to see current wind gust speed)